Time;durP1;ratioP1;P1;durP2;ratioP2;P2;SDS_P1;SDS_P2;PMS_P1;PMS_P2;Temp;Humidity;BMP_temperature;BMP_pressure;BME280_temperature;BME280_humidity;BME280_pressure;Samples;Min_cycle;Max_cycle;Signal;HPM_P1;HPM_P2
2022/06/06 00:01:14;;;;;;;65.45;34.17;;;;;;;;;;4362745;32;20054;-77
2022/06/06 00:03:40;;;;;;;71.40;34.85;;;;;;;;;;4363770;32;20034;-73
2022/06/06 00:06:10;;;;;;;69.35;34.17;;;;;;;;;;4363836;32;20417;-76
2022/06/06 00:08:35;;;;;;;63.55;32.70;;;;;;;;;;4362214;32;20094;-75
2022/06/06 00:11:01;;;;;;;59.28;32.63;;;;;;;;;;4362647;32;20097;-77
2022/06/06 00:13:27;;;;;;;70.25;33.58;;;;;;;;;;4362330;32;20046;-77
2022/06/06 00:15:52;;;;;;;68.45;34.63;;;;;;;;;;4362729;32;20073;-74
2022/06/06 00:18:17;;;;;;;61.70;33.78;;;;;;;;;;4363757;32;20111;-77
2022/06/06 00:20:43;;;;;;;70.43;33.00;;;;;;;;;;4362324;32;20073;-75
2022/06/06 00:23:08;;;;;;;72.18;33.13;;;;;;;;;;4362480;32;20326;-77
2022/06/06 00:25:33;;;;;;;70.28;34.50;;;;;;;;;;4362123;33;20039;-72
2022/06/06 00:27:58;;;;;;;65.35;31.75;;;;;;;;;;4361944;33;20369;-76
2022/06/06 00:30:24;;;;;;;66.00;32.35;;;;;;;;;;4362355;32;20154;-78
2022/06/06 00:35:33;;;;;;;55.53;30.67;;;;;;;;;;4363251;32;20045;-74
2022/06/06 00:37:59;;;;;;;57.28;29.65;;;;;;;;;;4361757;33;20031;-77
2022/06/06 00:40:25;;;;;;;70.82;32.00;;;;;;;;;;4361903;32;20069;-75
2022/06/06 00:42:51;;;;;;;60.67;30.98;;;;;;;;;;4361369;32;20088;-75
2022/06/06 00:45:16;;;;;;;62.08;30.90;;;;;;;;;;4361566;32;20062;-73
2022/06/06 00:47:41;;;;;;;61.28;30.37;;;;;;;;;;4362701;32;20121;-73
2022/06/06 00:50:12;;;;;;;56.78;31.42;;;;;;;;;;4361667;33;20032;-77
2022/06/06 00:52:39;;;;;;;63.95;31.42;;;;;;;;;;4362351;32;20023;-74
2022/06/06 00:55:08;;;;;;;65.30;31.20;;;;;;;;;;4361757;32;20027;-77
2022/06/06 00:57:35;;;;;;;61.05;31.27;;;;;;;;;;4362582;32;20027;-77
2022/06/06 01:00:02;;;;;;;64.55;31.02;;;;;;;;;;4362835;32;20058;-76
2022/06/06 01:02:27;;;;;;;61.80;31.58;;;;;;;;;;4363156;32;20082;-78
2022/06/06 01:04:53;;;;;;;68.75;31.55;;;;;;;;;;4361400;32;20417;-75
2022/06/06 01:07:19;;;;;;;67.05;32.75;;;;;;;;;;4362098;32;20090;-77
2022/06/06 01:09:44;;;;;;;62.35;32.53;;;;;;;;;;4361878;32;20342;-78
2022/06/06 01:12:11;;;;;;;71.25;32.47;;;;;;;;;;4360768;32;20094;-77
2022/06/06 01:14:43;;;;;;;57.30;31.27;;;;;;;;;;4361559;32;20035;-76
2022/06/06 01:17:21;;;;;;;58.55;29.92;;;;;;;;;;4363396;32;20054;-77
2022/06/06 01:19:49;;;;;;;52.85;28.45;;;;;;;;;;4362007;32;20027;-78
2022/06/06 01:22:24;;;;;;;48.28;25.62;;;;;;;;;;4361522;32;20031;-76
2022/06/06 01:25:07;;;;;;;50.00;25.27;;;;;;;;;;4361765;32;20027;-78
2022/06/06 01:27:54;;;;;;;43.53;23.08;;;;;;;;;;4361973;32;20467;-77
2022/06/06 01:30:22;;;;;;;47.22;25.08;;;;;;;;;;4361337;32;20053;-77
2022/06/06 01:32:53;;;;;;;45.08;24.15;;;;;;;;;;4347561;33;20414;-74
2022/06/06 01:35:39;;;;;;;45.10;24.48;;;;;;;;;;4363647;32;20027;-76
2022/06/06 01:38:08;;;;;;;42.90;24.73;;;;;;;;;;4360968;33;20026;-77
2022/06/06 01:40:56;;;;;;;46.47;24.55;;;;;;;;;;4360713;33;20057;-75
2022/06/06 01:43:31;;;;;;;46.40;24.95;;;;;;;;;;4360504;32;20062;-77
2022/06/06 01:45:58;;;;;;;45.40;24.95;;;;;;;;;;4376331;32;20033;-76
2022/06/06 01:48:26;;;;;;;48.90;26.27;;;;;;;;;;4375872;32;20383;-77
2022/06/06 01:50:52;;;;;;;54.83;27.58;;;;;;;;;;4376903;32;20153;-77
2022/06/06 01:53:18;;;;;;;47.67;27.58;;;;;;;;;;4375898;32;20035;-77
2022/06/06 01:55:45;;;;;;;49.95;26.40;;;;;;;;;;4377736;32;20043;-74
2022/06/06 01:58:14;;;;;;;60.47;28.20;;;;;;;;;;4375697;32;20416;-79
2022/06/06 02:00:40;;;;;;;50.33;27.73;;;;;;;;;;4375842;32;20031;-74
2022/06/06 02:03:05;;;;;;;55.15;27.23;;;;;;;;;;4375866;32;20066;-77
2022/06/06 02:05:31;;;;;;;51.50;27.02;;;;;;;;;;4375757;32;20416;-77
2022/06/06 02:07:57;;;;;;;48.30;27.52;;;;;;;;;;4376412;32;20356;-78
2022/06/06 02:10:22;;;;;;;69.57;28.15;;;;;;;;;;4363169;32;20322;-78
2022/06/06 02:12:48;;;;;;;56.85;27.40;;;;;;;;;;4361298;32;20081;-77
2022/06/06 02:15:15;;;;;;;52.22;26.80;;;;;;;;;;4361546;32;20051;-78
2022/06/06 02:17:40;;;;;;;58.00;28.35;;;;;;;;;;4360716;32;20031;-78
2022/06/06 02:20:06;;;;;;;56.92;26.77;;;;;;;;;;4361160;32;20073;-77
2022/06/06 02:22:31;;;;;;;54.42;27.58;;;;;;;;;;4361590;32;20794;-76
2022/06/06 02:24:57;;;;;;;61.88;28.85;;;;;;;;;;4360583;32;20085;-77
2022/06/06 02:27:22;;;;;;;44.75;25.77;;;;;;;;;;4361369;32;20357;-77
2022/06/06 02:29:48;;;;;;;56.00;27.65;;;;;;;;;;4360746;32;20090;-77
2022/06/06 02:32:13;;;;;;;54.92;28.85;;;;;;;;;;4361666;32;20095;-75
2022/06/06 02:34:39;;;;;;;50.70;26.77;;;;;;;;;;4361422;32;20023;-76
2022/06/06 02:37:04;;;;;;;55.70;27.35;;;;;;;;;;4361224;32;20035;-77
2022/06/06 02:39:30;;;;;;;51.03;27.80;;;;;;;;;;4360450;32;20054;-77
2022/06/06 02:41:56;;;;;;;55.90;26.33;;;;;;;;;;4360261;32;20381;-77
2022/06/06 02:44:21;;;;;;;52.85;26.58;;;;;;;;;;4346814;33;20075;-78
2022/06/06 02:46:47;;;;;;;53.85;25.80;;;;;;;;;;4360685;32;20053;-77
2022/06/06 02:49:12;;;;;;;51.03;25.85;;;;;;;;;;4361241;32;20087;-78
2022/06/06 02:51:40;;;;;;;48.92;26.05;;;;;;;;;;4360857;32;20054;-76
2022/06/06 02:54:05;;;;;;;57.65;26.80;;;;;;;;;;4360290;33;20031;-77
2022/06/06 02:56:31;;;;;;;49.00;25.92;;;;;;;;;;4361944;32;20066;-77
2022/06/06 02:58:57;;;;;;;46.60;25.23;;;;;;;;;;4360580;32;20402;-74
2022/06/06 03:01:22;;;;;;;52.10;25.90;;;;;;;;;;4360006;32;20440;-77
2022/06/06 03:03:48;;;;;;;53.90;27.15;;;;;;;;;;4360389;33;20032;-76
2022/06/06 03:06:23;;;;;;;52.22;27.35;;;;;;;;;;4360367;32;20069;-77
2022/06/06 03:09:16;;;;;;;53.90;28.20;;;;;;;;;;4361056;32;20030;-77
2022/06/06 03:11:44;;;;;;;53.42;27.27;;;;;;;;;;4360489;32;20469;-77
2022/06/06 03:14:28;;;;;;;54.83;26.52;;;;;;;;;;4360038;33;20081;-77
2022/06/06 03:22:46;;;;;;;51.72;27.77;;;;;;;;;;4360842;33;20058;-77
2022/06/06 03:25:41;;;;;;;49.65;27.55;;;;;;;;;;4346444;33;20254;-78
2022/06/06 03:28:19;;;;;;;50.65;27.33;;;;;;;;;;4360295;32;20090;-78
2022/06/06 03:31:03;;;;;;;53.42;26.42;;;;;;;;;;4361149;33;20057;-77
2022/06/06 03:33:39;;;;;;;47.67;27.70;;;;;;;;;;4360614;32;20342;-77
2022/06/06 03:36:07;;;;;;;54.38;26.33;;;;;;;;;;4346615;33;20353;-74
2022/06/06 03:38:32;;;;;;;43.85;24.35;;;;;;;;;;4361784;32;20062;-78
2022/06/06 03:41:01;;;;;;;52.30;27.52;;;;;;;;;;4374669;32;20035;-79
2022/06/06 03:43:34;;;;;;;56.78;28.95;;;;;;;;;;4375177;32;20430;-78
2022/06/06 03:46:30;;;;;;;57.53;29.80;;;;;;;;;;4375210;32;20118;-77
2022/06/06 03:49:11;;;;;;;61.55;29.75;;;;;;;;;;4374771;32;20417;-77
2022/06/06 03:51:36;;;;;;;56.47;30.30;;;;;;;;;;4375081;32;20030;-77
2022/06/06 03:54:07;;;;;;;58.92;30.42;;;;;;;;;;4374959;32;20102;-77
2022/06/06 03:56:47;;;;;;;53.58;29.10;;;;;;;;;;4375345;32;20445;-78
2022/06/06 03:59:19;;;;;;;61.90;30.92;;;;;;;;;;4375015;32;20133;-77
2022/06/06 04:01:51;;;;;;;54.85;29.08;;;;;;;;;;4375520;32;20046;-77
2022/06/06 04:04:40;;;;;;;62.85;31.30;;;;;;;;;;4374924;32;20400;-77
2022/06/06 04:07:05;;;;;;;56.60;30.73;;;;;;;;;;4376610;32;20058;-78
2022/06/06 04:09:32;;;;;;;51.00;24.52;;;;;;;;;;4373950;32;20046;-77
2022/06/06 04:12:09;;;;;;;43.38;22.70;;;;;;;;;;4375281;32;20019;-72
2022/06/06 04:14:50;;;;;;;36.25;19.92;;;;;;;;;;4374842;32;20393;-77
2022/06/06 04:17:15;;;;;;;34.85;18.65;;;;;;;;;;4375360;32;20049;-77
2022/06/06 04:20:00;;;;;;;26.67;16.15;;;;;;;;;;4377861;32;20019;-77
2022/06/06 04:22:35;;;;;;;34.55;17.45;;;;;;;;;;4378175;32;20115;-78
2022/06/06 04:25:20;;;;;;;28.92;16.27;;;;;;;;;;4377393;32;20401;-77
2022/06/06 04:27:49;;;;;;;28.65;16.42;;;;;;;;;;4377860;32;20149;-78
2022/06/06 04:30:27;;;;;;;26.58;15.38;;;;;;;;;;4377794;32;20058;-71
2022/06/06 04:33:02;;;;;;;28.73;13.65;;;;;;;;;;4377013;32;20080;-74
2022/06/06 04:35:31;;;;;;;29.10;14.27;;;;;;;;;;4377540;32;20053;-73
2022/06/06 04:38:08;;;;;;;27.92;13.50;;;;;;;;;;4375226;32;20078;-77
2022/06/06 04:40:45;;;;;;;22.08;11.27;;;;;;;;;;4362790;32;20027;-77
2022/06/06 04:43:14;;;;;;;19.00;11.23;;;;;;;;;;4362560;32;20020;-76
2022/06/06 04:45:53;;;;;;;22.23;10.05;;;;;;;;;;4362896;32;20019;-76
2022/06/06 04:48:19;;;;;;;19.80;10.25;;;;;;;;;;4362093;32;20028;-75
2022/06/06 04:50:45;;;;;;;17.08;8.60;;;;;;;;;;4362250;32;20050;-75
2022/06/06 04:53:13;;;;;;;15.27;8.77;;;;;;;;;;4362366;32;20036;-76
2022/06/06 04:55:40;;;;;;;14.43;8.73;;;;;;;;;;4362212;32;20046;-78
2022/06/06 04:58:07;;;;;;;19.45;8.73;;;;;;;;;;4362029;32;20023;-79
2022/06/06 05:00:35;;;;;;;13.15;6.37;;;;;;;;;;4362063;32;20183;-78
2022/06/06 05:03:01;;;;;;;9.98;5.72;;;;;;;;;;4362311;32;20015;-75
2022/06/06 05:05:28;;;;;;;15.25;5.55;;;;;;;;;;4362919;32;20057;-76
2022/06/06 05:08:15;;;;;;;11.88;5.45;;;;;;;;;;4364251;32;20139;-77
2022/06/06 05:10:59;;;;;;;15.88;5.75;;;;;;;;;;4376848;32;20121;-77
2022/06/06 05:13:33;;;;;;;10.00;4.95;;;;;;;;;;4377082;32;20389;-72
2022/06/06 05:16:11;;;;;;;9.63;4.97;;;;;;;;;;4376686;32;20019;-78
2022/06/06 05:18:55;;;;;;;12.90;4.70;;;;;;;;;;4377250;32;20019;-73
2022/06/06 05:21:35;;;;;;;8.45;3.67;;;;;;;;;;4377576;32;20027;-77
2022/06/06 05:24:23;;;;;;;13.75;4.40;;;;;;;;;;4376727;32;20391;-77
2022/06/06 05:27:01;;;;;;;12.30;4.10;;;;;;;;;;4372299;32;20031;-77
2022/06/06 05:29:39;;;;;;;11.82;3.72;;;;;;;;;;4376562;32;20015;-75
2022/06/06 05:32:16;;;;;;;9.82;4.10;;;;;;;;;;4376393;32;20023;-77
2022/06/06 05:34:51;;;;;;;10.70;3.95;;;;;;;;;;4389043;32;20408;-77
2022/06/06 05:37:29;;;;;;;12.63;4.30;;;;;;;;;;4377485;32;20466;-77
2022/06/06 05:40:13;;;;;;;11.10;3.87;;;;;;;;;;4361234;32;20031;-76
2022/06/06 05:42:47;;;;;;;9.30;3.37;;;;;;;;;;4389543;32;20056;-73
2022/06/06 05:45:19;;;;;;;10.52;3.58;;;;;;;;;;4390938;32;20491;-76
2022/06/06 05:48:02;;;;;;;12.07;3.78;;;;;;;;;;4386216;32;20015;-77
2022/06/06 05:50:34;;;;;;;8.48;3.03;;;;;;;;;;4390955;32;20026;-74
2022/06/06 05:53:16;;;;;;;10.02;3.53;;;;;;;;;;4391510;32;20068;-77
2022/06/06 05:55:54;;;;;;;6.70;3.12;;;;;;;;;;4391325;32;20143;-77
2022/06/06 05:58:39;;;;;;;9.18;4.53;;;;;;;;;;4391025;32;20023;-78
2022/06/06 06:01:23;;;;;;;12.57;4.65;;;;;;;;;;4391803;32;20041;-77
2022/06/06 06:04:07;;;;;;;11.25;4.37;;;;;;;;;;4382934;32;20057;-75
2022/06/06 06:06:34;;;;;;;7.95;4.93;;;;;;;;;;4388898;32;20054;-77
2022/06/06 06:09:23;;;;;;;16.30;5.75;;;;;;;;;;4387601;32;20353;-73
2022/06/06 06:12:00;;;;;;;10.07;5.45;;;;;;;;;;4378697;32;20039;-78
2022/06/06 06:14:26;;;;;;;10.13;6.25;;;;;;;;;;4376772;32;20014;-78
2022/06/06 06:16:54;;;;;;;16.92;6.45;;;;;;;;;;4375580;32;20089;-78
2022/06/06 06:19:23;;;;;;;11.05;6.40;;;;;;;;;;4376029;32;20407;-77
2022/06/06 06:21:56;;;;;;;9.98;5.93;;;;;;;;;;4376059;32;20030;-76
2022/06/06 06:24:27;;;;;;;9.88;5.43;;;;;;;;;;4373901;32;20179;-77
2022/06/06 06:26:54;;;;;;;12.30;6.18;;;;;;;;;;4375170;32;20082;-76
2022/06/06 06:29:20;;;;;;;9.43;5.72;;;;;;;;;;4375208;32;20042;-75
2022/06/06 06:32:07;;;;;;;12.23;6.15;;;;;;;;;;4375502;32;20098;-78
2022/06/06 06:34:38;;;;;;;13.88;7.05;;;;;;;;;;4360239;32;20099;-74
2022/06/06 06:37:03;;;;;;;11.88;6.07;;;;;;;;;;4360662;33;20083;-75
2022/06/06 06:39:29;;;;;;;10.73;6.37;;;;;;;;;;4363350;32;20073;-73
2022/06/06 06:42:09;;;;;;;15.15;5.72;;;;;;;;;;4359932;33;20122;-77
2022/06/06 06:44:41;;;;;;;9.75;5.12;;;;;;;;;;4359968;32;20122;-76
2022/06/06 06:47:18;;;;;;;9.10;4.93;;;;;;;;;;4360770;32;20028;-77
2022/06/06 06:49:45;;;;;;;9.20;4.68;;;;;;;;;;4361364;32;20041;-77
2022/06/06 06:52:11;;;;;;;11.52;4.50;;;;;;;;;;4360446;32;20152;-77
2022/06/06 06:54:42;;;;;;;8.10;4.70;;;;;;;;;;4360351;32;20024;-76
2022/06/06 06:57:19;;;;;;;12.57;4.78;;;;;;;;;;4360419;32;20421;-75
2022/06/06 06:59:50;;;;;;;10.77;4.72;;;;;;;;;;4360737;32;20020;-73
2022/06/06 07:10:51;;;;;;;12.57;4.78;;;;;;;;;;4375558;32;20446;-75
2022/06/06 07:13:19;;;;;;;11.35;4.40;;;;;;;;;;4362047;32;20019;-75
2022/06/06 07:16:20;;;;;;;10.00;4.78;;;;;;;;;;4361595;32;20019;-74
2022/06/06 07:18:47;;;;;;;8.32;4.20;;;;;;;;;;4328186;33;20357;-76
2022/06/06 07:21:17;;;;;;;13.57;4.60;;;;;;;;;;4365394;32;20030;-77
2022/06/06 07:23:48;;;;;;;9.27;5.10;;;;;;;;;;4375119;32;20082;-76
2022/06/06 07:26:13;;;;;;;11.35;5.12;;;;;;;;;;4375086;32;20020;-75
2022/06/06 07:28:38;;;;;;;9.80;4.85;;;;;;;;;;4375032;32;20068;-76
2022/06/06 07:31:06;;;;;;;12.48;5.15;;;;;;;;;;4374561;32;20026;-76
2022/06/06 07:33:54;;;;;;;8.35;4.22;;;;;;;;;;4374861;32;20055;-76
2022/06/06 07:36:25;;;;;;;12.75;4.97;;;;;;;;;;4375306;32;20451;-78
2022/06/06 07:38:51;;;;;;;12.68;4.50;;;;;;;;;;4365078;32;20097;-77
2022/06/06 07:41:25;;;;;;;10.32;4.60;;;;;;;;;;4360076;32;20394;-78
2022/06/06 07:43:50;;;;;;;11.27;4.80;;;;;;;;;;4359871;32;20460;-77
2022/06/06 07:46:30;;;;;;;8.15;3.53;;;;;;;;;;4360207;33;20035;-77
2022/06/06 07:49:07;;;;;;;9.40;3.17;;;;;;;;;;4361026;32;20023;-77
2022/06/06 07:51:43;;;;;;;6.20;2.85;;;;;;;;;;4360408;32;20050;-80
2022/06/06 07:54:11;;;;;;;12.73;4.15;;;;;;;;;;4362337;32;20046;-75
2022/06/06 07:56:45;;;;;;;11.50;3.70;;;;;;;;;;4350033;32;20031;-73
2022/06/06 07:59:20;;;;;;;11.65;4.47;;;;;;;;;;4363163;32;20035;-74
2022/06/06 08:01:45;;;;;;;8.82;3.65;;;;;;;;;;4362746;32;20049;-76
2022/06/06 08:04:24;;;;;;;6.32;3.60;;;;;;;;;;4362988;32;20027;-77
2022/06/06 08:06:52;;;;;;;8.73;4.43;;;;;;;;;;4362538;32;20076;-77
2022/06/06 08:09:27;;;;;;;8.25;3.75;;;;;;;;;;4374860;32;20042;-78
2022/06/06 08:12:00;;;;;;;9.98;4.12;;;;;;;;;;4356548;32;20153;-75
2022/06/06 08:14:28;;;;;;;7.57;4.40;;;;;;;;;;4392756;32;20014;-79
2022/06/06 08:16:57;;;;;;;12.25;5.15;;;;;;;;;;4378594;32;20052;-78
2022/06/06 08:19:25;;;;;;;12.10;3.83;;;;;;;;;;4392056;32;20406;-76
2022/06/06 08:21:51;;;;;;;10.02;4.22;;;;;;;;;;4378634;32;20018;-76
2022/06/06 08:24:16;;;;;;;7.35;2.90;;;;;;;;;;4377967;32;20116;-72
2022/06/06 08:26:44;;;;;;;12.88;3.62;;;;;;;;;;4378614;32;20509;-74
2022/06/06 08:29:10;;;;;;;10.38;3.12;;;;;;;;;;4393963;32;20035;-77
2022/06/06 08:31:35;;;;;;;19.52;4.12;;;;;;;;;;4377665;32;20079;-73
2022/06/06 08:34:01;;;;;;;7.40;3.20;;;;;;;;;;4393319;32;20375;-74
2022/06/06 08:36:34;;;;;;;12.48;5.62;;;;;;;;;;4391901;32;20455;-76
2022/06/06 08:39:11;;;;;;;6.15;3.30;;;;;;;;;;4379102;32;20061;-74
2022/06/06 08:41:57;;;;;;;10.00;3.75;;;;;;;;;;4377251;32;20117;-77
2022/06/06 08:44:27;;;;;;;6.65;3.12;;;;;;;;;;4377533;32;20088;-74
2022/06/06 08:47:22;;;;;;;10.60;3.65;;;;;;;;;;4377957;32;20089;-76
2022/06/06 08:52:34;;;;;;;10.63;3.28;;;;;;;;;;4377538;32;20040;-77
2022/06/06 08:55:18;;;;;;;7.05;3.70;;;;;;;;;;4376451;32;20023;-73
2022/06/06 08:58:01;;;;;;;10.13;2.85;;;;;;;;;;4377131;32;20023;-79
2022/06/06 09:00:26;;;;;;;10.65;2.53;;;;;;;;;;4376941;32;20024;-76
2022/06/06 09:03:10;;;;;;;5.67;2.63;;;;;;;;;;4362683;32;20548;-74
2022/06/06 09:05:53;;;;;;;5.78;2.90;;;;;;;;;;4376695;32;20131;-77
2022/06/06 09:08:37;;;;;;;8.57;2.65;;;;;;;;;;4363326;32;20011;-75
2022/06/06 09:11:02;;;;;;;7.57;2.53;;;;;;;;;;4376861;32;20062;-73
2022/06/06 09:13:34;;;;;;;7.57;3.00;;;;;;;;;;4362516;32;20041;-78
2022/06/06 09:16:12;;;;;;;10.65;3.05;;;;;;;;;;4362281;32;20041;-75
2022/06/06 09:18:46;;;;;;;9.27;2.65;;;;;;;;;;4367898;32;20031;-74
2022/06/06 09:21:14;;;;;;;6.93;2.50;;;;;;;;;;4361561;32;20050;-74
2022/06/06 09:23:58;;;;;;;7.25;2.65;;;;;;;;;;4361580;32;20064;-76
2022/06/06 09:26:52;;;;;;;9.45;4.50;;;;;;;;;;4362376;32;20027;-79
2022/06/06 09:29:37;;;;;;;16.62;6.65;;;;;;;;;;4362016;32;20066;-77
2022/06/06 09:32:21;;;;;;;14.73;7.57;;;;;;;;;;4361183;32;20059;-75
2022/06/06 09:35:05;;;;;;;11.95;6.87;;;;;;;;;;4359775;33;20046;-80
2022/06/06 09:37:37;;;;;;;8.18;4.90;;;;;;;;;;4361516;32;20028;-80
2022/06/06 09:40:21;;;;;;;6.93;4.70;;;;;;;;;;4360871;33;20063;-80
2022/06/06 09:42:54;;;;;;;7.68;4.72;;;;;;;;;;4361565;32;20019;-78
2022/06/06 09:45:29;;;;;;;8.93;5.45;;;;;;;;;;4360795;32;20067;-79
2022/06/06 09:48:06;;;;;;;9.55;4.15;;;;;;;;;;4347513;33;20045;-78
2022/06/06 09:50:47;;;;;;;4.62;2.87;;;;;;;;;;4347781;33;20436;-76
2022/06/06 09:53:27;;;;;;;8.73;3.83;;;;;;;;;;4362617;32;20059;-80
2022/06/06 09:59:01;;;;;;;8.20;4.47;;;;;;;;;;4361515;32;20037;-80
2022/06/06 10:02:04;;;;;;;7.95;4.45;;;;;;;;;;4347286;33;20020;-80
2022/06/06 10:04:29;;;;;;;11.45;5.22;;;;;;;;;;4361124;32;20040;-82
2022/06/06 10:06:54;;;;;;;8.30;4.78;;;;;;;;;;4363902;32;20053;-77
2022/06/06 10:09:32;;;;;;;8.65;5.62;;;;;;;;;;4376087;32;20045;-81
2022/06/06 10:12:19;;;;;;;11.60;6.50;;;;;;;;;;4374942;32;20042;-81
2022/06/06 10:15:16;;;;;;;9.18;6.90;;;;;;;;;;4375478;32;20031;-81
2022/06/06 10:17:48;;;;;;;12.82;7.43;;;;;;;;;;4374066;32;20413;-81
2022/06/06 10:20:36;;;;;;;10.27;6.65;;;;;;;;;;4375723;32;20061;-80
2022/06/06 10:23:20;;;;;;;15.00;7.80;;;;;;;;;;4375762;32;20010;-81
2022/06/06 10:26:09;;;;;;;9.43;7.30;;;;;;;;;;4381796;32;20030;-81
2022/06/06 10:28:44;;;;;;;12.50;6.20;;;;;;;;;;4390285;32;20478;-79
2022/06/06 10:31:09;;;;;;;6.95;5.03;;;;;;;;;;4390516;32;20149;-81
2022/06/06 10:33:43;;;;;;;5.50;4.35;;;;;;;;;;4374327;32;20022;-81
2022/06/06 10:36:35;;;;;;;9.32;5.00;;;;;;;;;;4391429;32;20057;-80
2022/06/06 10:39:19;;;;;;;9.20;4.28;;;;;;;;;;4360722;32;20042;-78
2022/06/06 10:42:03;;;;;;;8.75;5.28;;;;;;;;;;4360091;33;20058;-81
2022/06/06 10:44:29;;;;;;;16.08;6.07;;;;;;;;;;4359154;32;20032;-79
2022/06/06 10:47:16;;;;;;;11.30;5.70;;;;;;;;;;4359950;33;20409;-77
2022/06/06 10:50:20;;;;;;;12.43;5.85;;;;;;;;;;4360422;32;20410;-79
2022/06/06 10:52:57;;;;;;;11.12;6.85;;;;;;;;;;4313821;33;20426;-79
2022/06/06 10:55:25;;;;;;;13.68;7.75;;;;;;;;;;4355460;32;20108;-81
2022/06/06 10:58:23;;;;;;;15.38;8.60;;;;;;;;;;4360078;32;20046;-79
2022/06/06 11:01:11;;;;;;;14.75;8.45;;;;;;;;;;4299603;33;20176;-80
2022/06/06 11:04:06;;;;;;;10.27;6.62;;;;;;;;;;4316474;33;20061;-80
2022/06/06 11:06:34;;;;;;;10.30;6.53;;;;;;;;;;4353758;33;20030;-81
2022/06/06 11:09:06;;;;;;;14.02;6.68;;;;;;;;;;4360006;32;20015;-78
2022/06/06 11:11:50;;;;;;;10.15;6.75;;;;;;;;;;4360413;33;20015;-81
2022/06/06 11:14:22;;;;;;;9.93;5.47;;;;;;;;;;4359851;32;20026;-81
2022/06/06 11:16:59;;;;;;;6.05;4.72;;;;;;;;;;4359902;33;20364;-77
2022/06/06 11:19:28;;;;;;;10.95;5.07;;;;;;;;;;4359908;33;20409;-81
2022/06/06 11:22:20;;;;;;;8.45;4.12;;;;;;;;;;4359863;33;20024;-82
2022/06/06 11:25:06;;;;;;;12.93;5.32;;;;;;;;;;4360799;32;20023;-80
2022/06/06 11:27:35;;;;;;;7.87;5.18;;;;;;;;;;4361481;32;20035;-80
2022/06/06 11:30:04;;;;;;;7.55;3.78;;;;;;;;;;4363259;32;20045;-78
2022/06/06 11:32:32;;;;;;;9.80;3.87;;;;;;;;;;4362886;32;20102;-78
2022/06/06 11:34:57;;;;;;;6.03;3.90;;;;;;;;;;4363958;32;20015;-81
2022/06/06 11:37:29;;;;;;;8.57;4.65;;;;;;;;;;4363122;32;20112;-81
2022/06/06 11:40:13;;;;;;;8.55;3.42;;;;;;;;;;4362943;32;20126;-80
2022/06/06 11:42:38;;;;;;;6.37;3.30;;;;;;;;;;4362045;32;20043;-77
2022/06/06 11:45:09;;;;;;;7.28;3.25;;;;;;;;;;4362873;32;20323;-81
2022/06/06 11:47:37;;;;;;;7.05;3.40;;;;;;;;;;4362457;32;20150;-81
2022/06/06 11:50:02;;;;;;;6.78;3.37;;;;;;;;;;4363515;32;20019;-79
2022/06/06 11:52:28;;;;;;;9.55;3.60;;;;;;;;;;4361354;32;20039;-80
2022/06/06 11:55:15;;;;;;;6.60;3.40;;;;;;;;;;4362524;32;20405;-81
2022/06/06 11:57:49;;;;;;;8.82;3.70;;;;;;;;;;4362700;32;20127;-81
2022/06/06 12:00:40;;;;;;;6.80;4.22;;;;;;;;;;4362169;32;20361;-79
2022/06/06 12:03:27;;;;;;;8.48;4.43;;;;;;;;;;4361118;33;20077;-81
2022/06/06 12:05:52;;;;;;;;;;;;;;;;;;4362827;32;20507;-80
2022/06/06 12:08:24;;;;;;;9.20;5.05;;;;;;;;;;4363042;33;20260;-80
2022/06/06 12:10:59;;;;;;;15.75;5.35;;;;;;;;;;4362584;32;20154;-80
2022/06/06 12:13:27;;;;;;;14.60;7.30;;;;;;;;;;4362447;32;20065;-81
2022/06/06 12:16:22;;;;;;;12.23;7.05;;;;;;;;;;4363747;32;20050;-80
2022/06/06 12:18:56;;;;;;;8.70;5.70;;;;;;;;;;4362988;32;20020;-80
2022/06/06 12:21:40;;;;;;;12.00;7.00;;;;;;;;;;4362813;32;20048;-78
2022/06/06 12:24:23;;;;;;;18.12;8.27;;;;;;;;;;4362576;32;20018;-81
2022/06/06 12:27:07;;;;;;;13.50;8.98;;;;;;;;;;4362671;32;20019;-81
2022/06/06 12:29:39;;;;;;;10.60;7.53;;;;;;;;;;4362291;32;20059;-81
2022/06/06 12:32:10;;;;;;;5.90;4.18;;;;;;;;;;4363202;32;20023;-78
2022/06/06 12:34:40;;;;;;;5.35;3.75;;;;;;;;;;4362197;32;20050;-80
2022/06/06 12:37:09;;;;;;;9.48;4.78;;;;;;;;;;4362577;32;20027;-80
2022/06/06 12:39:49;;;;;;;8.45;4.45;;;;;;;;;;4360951;32;20062;-80
2022/06/06 12:42:14;;;;;;;7.40;4.72;;;;;;;;;;4362432;32;20023;-81
2022/06/06 12:44:52;;;;;;;8.32;3.58;;;;;;;;;;4348309;33;20061;-81
2022/06/06 12:47:20;;;;;;;7.32;3.97;;;;;;;;;;4362844;32;20046;-81
2022/06/06 12:50:04;;;;;;;7.22;4.37;;;;;;;;;;4362866;32;20068;-81
2022/06/06 12:52:46;;;;;;;4.82;2.65;;;;;;;;;;4348915;33;20552;-80
2022/06/06 12:58:35;;;;;;;3.92;1.70;;;;;;;;;;4363247;32;20229;-80
2022/06/06 13:03:54;;;;;;;4.45;2.00;;;;;;;;;;4368793;32;20046;-83
2022/06/06 13:06:20;;;;;;;3.92;2.00;;;;;;;;;;4378577;32;20049;-81
2022/06/06 13:08:48;;;;;;;10.10;2.10;;;;;;;;;;4371599;32;20397;-81
2022/06/06 13:11:40;;;;;;;3.60;1.80;;;;;;;;;;4386690;32;20081;-81
2022/06/06 13:14:14;;;;;;;4.22;2.78;;;;;;;;;;4388870;32;20056;-82
2022/06/06 13:16:42;;;;;;;8.40;2.47;;;;;;;;;;4389173;32;20007;-83
2022/06/06 13:19:20;;;;;;;4.47;2.10;;;;;;;;;;4377332;32;20030;-82
2022/06/06 13:22:01;;;;;;;4.68;1.85;;;;;;;;;;4391009;32;20094;-82
2022/06/06 13:24:52;;;;;;;8.48;2.30;;;;;;;;;;4391559;32;20060;-82
2022/06/06 13:27:26;;;;;;;5.18;2.58;;;;;;;;;;4390735;32;20031;-83
2022/06/06 13:29:51;;;;;;;5.53;2.53;;;;;;;;;;4379131;32;20065;-78
2022/06/06 13:32:33;;;;;;;5.82;2.40;;;;;;;;;;4378502;32;20402;-81
2022/06/06 13:35:16;;;;;;;5.07;2.37;;;;;;;;;;4377060;32;20030;-82
2022/06/06 13:38:04;;;;;;;5.62;2.30;;;;;;;;;;4378659;32;20014;-81
2022/06/06 13:40:46;;;;;;;5.87;2.60;;;;;;;;;;4358664;32;20065;-81
2022/06/06 13:43:21;;;;;;;4.12;2.37;;;;;;;;;;4378341;32;20054;-83
2022/06/06 13:45:49;;;;;;;4.85;2.33;;;;;;;;;;4377791;32;20027;-82
2022/06/06 13:48:30;;;;;;;4.40;2.47;;;;;;;;;;4364269;32;20156;-81
2022/06/06 13:51:08;;;;;;;8.18;3.00;;;;;;;;;;4378152;32;20057;-82
2022/06/06 13:53:52;;;;;;;6.97;2.50;;;;;;;;;;4378339;32;20102;-82
2022/06/06 13:56:53;;;;;;;5.85;2.58;;;;;;;;;;4379052;32;20023;-83
2022/06/06 13:59:44;;;;;;;4.97;2.30;;;;;;;;;;4330604;33;20027;-81
2022/06/06 14:02:21;;;;;;;5.57;2.45;;;;;;;;;;4376365;32;20020;-81
2022/06/06 14:04:55;;;;;;;7.87;3.10;;;;;;;;;;4376358;32;20086;-82
2022/06/06 14:07:21;;;;;;;6.45;3.00;;;;;;;;;;4362966;32;20338;-82
2022/06/06 14:09:47;;;;;;;8.50;3.25;;;;;;;;;;4363228;32;20106;-82
2022/06/06 14:12:12;;;;;;;6.45;2.78;;;;;;;;;;4376252;32;20023;-78
2022/06/06 14:14:39;;;;;;;9.52;2.70;;;;;;;;;;4377282;32;20400;-81
2022/06/06 14:17:08;;;;;;;6.90;3.28;;;;;;;;;;4375131;32;20080;-83
2022/06/06 14:19:48;;;;;;;8.48;2.80;;;;;;;;;;4376738;32;20092;-82
2022/06/06 14:22:30;;;;;;;4.40;3.45;;;;;;;;;;4376816;32;20065;-81
2022/06/06 14:24:56;;;;;;;8.18;3.60;;;;;;;;;;4376948;32;20027;-82
2022/06/06 14:27:22;;;;;;;7.60;4.07;;;;;;;;;;4376084;32;20095;-79
2022/06/06 14:29:50;;;;;;;10.45;4.40;;;;;;;;;;4376156;32;20031;-82
2022/06/06 14:32:26;;;;;;;9.68;4.53;;;;;;;;;;4376677;32;20023;-80
2022/06/06 14:34:53;;;;;;;7.28;4.80;;;;;;;;;;4376595;32;20031;-82
2022/06/06 14:37:26;;;;;;;7.15;4.93;;;;;;;;;;4376164;32;20049;-82
2022/06/06 14:39:52;;;;;;;8.23;4.62;;;;;;;;;;4376385;32;20027;-82
2022/06/06 14:42:20;;;;;;;8.93;5.05;;;;;;;;;;4376043;32;20053;-82
2022/06/06 14:44:56;;;;;;;11.55;6.35;;;;;;;;;;4362208;32;20023;-82
2022/06/06 14:47:23;;;;;;;12.48;6.65;;;;;;;;;;4375974;32;20020;-83
2022/06/06 14:52:36;;;;;;;8.02;5.07;;;;;;;;;;4376019;32;20121;-82
2022/06/06 14:55:02;;;;;;;7.20;4.80;;;;;;;;;;4376449;32;20396;-82
2022/06/06 14:57:30;;;;;;;10.07;5.78;;;;;;;;;;4375460;32;20381;-82
2022/06/06 14:59:56;;;;;;;9.05;5.75;;;;;;;;;;4375282;32;20031;-81
2022/06/06 15:02:22;;;;;;;;;;;;;;;;;;4375449;32;20062;-81
2022/06/06 15:05:07;;;;;;;7.68;4.82;;;;;;;;;;4371943;32;19938;-80
2022/06/06 15:07:42;;;;;;;7.60;5.18;;;;;;;;;;4374716;32;20027;-81
2022/06/06 15:10:20;;;;;;;6.37;4.97;;;;;;;;;;4375529;32;20102;-82
2022/06/06 15:12:45;;;;;;;6.93;4.57;;;;;;;;;;4375388;32;20027;-83
2022/06/06 15:15:11;;;;;;;;;;;;;;;;;;4375975;32;20020;-80
2022/06/06 15:18:08;;;;;;;8.40;4.43;;;;;;;;;;4375511;32;20029;-82
2022/06/06 15:20:37;;;;;;;7.10;4.03;;;;;;;;;;4374249;32;20408;-78
2022/06/06 15:23:10;;;;;;;8.18;4.50;;;;;;;;;;4374729;32;20423;-81
2022/06/06 15:25:49;;;;;;;9.77;4.82;;;;;;;;;;4375836;32;20072;-81
2022/06/06 15:28:31;;;;;;;7.82;4.43;;;;;;;;;;4375723;32;20394;-81
2022/06/06 15:31:03;;;;;;;9.85;4.05;;;;;;;;;;4375353;32;20069;-81
2022/06/06 15:33:47;;;;;;;5.18;3.08;;;;;;;;;;4375274;32;20049;-80
2022/06/06 15:36:25;;;;;;;6.20;3.47;;;;;;;;;;4375812;32;20045;-81
2022/06/06 15:38:54;;;;;;;4.68;2.83;;;;;;;;;;4375482;32;20110;-81
2022/06/06 15:41:23;;;;;;;8.50;3.03;;;;;;;;;;4374810;32;20027;-80